createdAt,value
2019-04-28T00:00:41.269Z,6.90
2019-04-28T00:01:41.317Z,6.80
2019-04-28T00:02:41.277Z,6.69
2019-04-28T00:03:41.976Z,6.62
2019-04-28T00:04:41.616Z,6.58
2019-04-28T00:05:41.625Z,6.56
2019-04-28T00:06:41.746Z,6.53
2019-04-28T00:07:41.212Z,6.54
2019-04-28T00:08:42.812Z,6.53
2019-04-28T00:09:41.554Z,6.53
2019-04-28T00:10:41.852Z,6.50
2019-04-28T00:11:41.728Z,6.40
2019-04-28T00:12:41.305Z,6.32
2019-04-28T00:13:41.810Z,6.30
2019-04-28T00:14:41.809Z,6.35
2019-04-28T00:15:41.655Z,6.38
2019-04-28T00:16:41.335Z,6.38
2019-04-28T00:17:41.993Z,6.35
2019-04-28T00:18:41.653Z,6.36
2019-04-28T00:19:41.085Z,6.40
2019-04-28T00:20:41.035Z,6.38
2019-04-28T00:21:41.479Z,6.38
2019-04-28T00:22:41.903Z,6.40
2019-04-28T00:23:42.263Z,6.38
2019-04-28T00:24:41.624Z,6.38
2019-04-28T00:25:41.107Z,6.38
2019-04-28T00:26:41.146Z,6.40
2019-04-28T00:27:41.521Z,6.43
2019-04-28T00:28:41.616Z,6.44
2019-04-28T00:29:45.611Z,6.48
2019-04-28T00:30:41.943Z,6.51
2019-04-28T00:31:41.447Z,6.46
2019-04-28T00:32:41.761Z,6.43
2019-04-28T00:33:41.062Z,6.43
2019-04-28T00:34:41.375Z,6.40
2019-04-28T00:35:41.824Z,6.40
2019-04-28T00:36:42.801Z,6.40
2019-04-28T00:37:41.808Z,6.41
2019-04-28T00:38:41.516Z,6.43
2019-04-28T00:39:41.081Z,6.41
2019-04-28T00:40:41.389Z,6.41
2019-04-28T00:41:42.050Z,6.40
2019-04-28T00:42:41.419Z,6.44
2019-04-28T00:43:41.785Z,6.46
2019-04-28T00:44:41.600Z,6.47
2019-04-28T00:45:41.323Z,6.48
2019-04-28T00:46:41.117Z,6.50
2019-04-28T00:47:42.836Z,6.50
2019-04-28T00:48:41.538Z,6.51
2019-04-28T00:49:42.013Z,6.54
2019-04-28T00:50:41.371Z,6.56
2019-04-28T00:51:41.488Z,6.53
2019-04-28T00:52:41.849Z,6.54
2019-04-28T00:53:40.950Z,6.54
2019-04-28T00:54:42.047Z,6.51
2019-04-28T00:55:41.644Z,6.51
2019-04-28T00:56:41.823Z,6.48
2019-04-28T00:57:41.029Z,6.46
2019-04-28T00:58:41.731Z,6.43
2019-04-28T00:59:52.192Z,6.43
2019-04-28T01:00:41.618Z,6.47
2019-04-28T01:01:40.740Z,6.51
2019-04-28T01:02:41.307Z,6.53
2019-04-28T01:03:42.087Z,6.53
2019-04-28T01:04:41.343Z,6.53
2019-04-28T01:05:41.147Z,6.53
2019-04-28T01:06:40.599Z,6.53
2019-04-28T01:07:41.472Z,6.51
2019-04-28T01:08:41.943Z,6.48
2019-04-28T01:09:41.585Z,6.51
2019-04-28T01:10:40.980Z,6.54
2019-04-28T01:11:41.455Z,6.56
2019-04-28T01:12:41.121Z,6.59
2019-04-28T01:13:41.937Z,6.62
2019-04-28T01:14:40.944Z,6.63
2019-04-28T01:15:40.430Z,6.63
2019-04-28T01:16:40.440Z,6.63
2019-04-28T01:17:40.401Z,6.66
2019-04-28T01:18:40.572Z,6.66
2019-04-28T01:19:40.383Z,6.69
2019-04-28T01:20:40.409Z,6.72
2019-04-28T01:21:41.600Z,6.73
2019-04-28T01:22:40.367Z,6.73
2019-04-28T01:23:40.375Z,6.76
2019-04-28T01:24:40.340Z,6.76
2019-04-28T01:25:40.882Z,6.79
2019-04-28T01:26:41.650Z,6.79
2019-04-28T01:27:40.376Z,6.79
2019-04-28T01:28:40.311Z,6.81
2019-04-28T01:29:40.420Z,6.81
2019-04-28T01:30:40.339Z,6.80
2019-04-28T01:31:40.332Z,6.81
2019-04-28T01:32:40.309Z,6.81
2019-04-28T01:33:40.717Z,6.83
2019-04-28T01:34:40.270Z,6.84
2019-04-28T01:35:40.282Z,6.83
2019-04-28T01:36:40.259Z,6.83
2019-04-28T01:37:40.708Z,6.84
2019-04-28T01:38:40.320Z,6.84
2019-04-28T01:39:41.254Z,6.87
2019-04-28T01:40:41.380Z,6.87
2019-04-28T01:41:40.178Z,6.86
2019-04-28T01:42:41.226Z,6.84
2019-04-28T01:43:41.736Z,6.84
2019-04-28T01:44:40.116Z,6.80
2019-04-28T01:45:41.592Z,6.81
2019-04-28T01:46:40.126Z,6.81
2019-04-28T01:47:40.614Z,6.84
2019-04-28T01:48:40.098Z,6.86
2019-04-28T01:49:40.583Z,6.89
2019-04-28T01:50:40.126Z,6.89
2019-04-28T01:51:41.615Z,6.90
2019-04-28T01:52:40.166Z,6.89
2019-04-28T01:53:40.011Z,6.89
2019-04-28T01:54:40.405Z,6.90
2019-04-28T01:55:41.132Z,6.90
2019-04-28T01:56:40.410Z,6.89
2019-04-28T01:57:40.217Z,6.86
2019-04-28T01:58:40.436Z,6.86
2019-04-28T01:59:40.453Z,6.81
2019-04-28T02:00:40.538Z,6.77
2019-04-28T02:01:40.094Z,6.76
2019-04-28T02:02:40.721Z,6.77
2019-04-28T02:03:40.481Z,6.77
2019-04-28T02:04:40.378Z,6.76
2019-04-28T02:05:40.558Z,6.72
2019-04-28T02:06:40.005Z,6.73
2019-04-28T02:07:40.704Z,6.73
2019-04-28T02:08:40.024Z,6.73
2019-04-28T02:09:39.848Z,6.77
2019-04-28T02:10:40.239Z,6.77
2019-04-28T02:11:41.210Z,6.79
2019-04-28T02:12:40.293Z,6.80
2019-04-28T02:13:39.971Z,6.77
2019-04-28T02:14:40.396Z,6.80
2019-04-28T02:15:40.105Z,6.81
2019-04-28T02:16:40.509Z,6.81
2019-04-28T02:17:40.252Z,6.79
2019-04-28T02:18:39.990Z,6.77
2019-04-28T02:19:40.965Z,6.72
2019-04-28T02:20:39.824Z,6.71
2019-04-28T02:21:39.743Z,6.72
2019-04-28T02:22:40.169Z,6.73
2019-04-28T02:23:39.789Z,6.77
2019-04-28T02:24:40.492Z,6.72
2019-04-28T02:25:39.924Z,6.73
2019-04-28T02:26:40.280Z,6.71
2019-04-28T02:27:40.149Z,6.72
2019-04-28T02:28:40.740Z,6.76
2019-04-28T02:29:41.395Z,6.77
2019-04-28T02:30:45.377Z,6.77
2019-04-28T02:31:41.950Z,6.76
2019-04-28T02:32:40.740Z,6.79
2019-04-28T02:33:40.827Z,6.77
2019-04-28T02:34:41.110Z,6.79
2019-04-28T02:35:41.830Z,6.81
2019-04-28T02:36:40.767Z,6.81
2019-04-28T02:37:40.587Z,6.80
2019-04-28T02:38:41.460Z,6.83
2019-04-28T02:39:40.957Z,6.81
2019-04-28T02:40:40.640Z,6.81
2019-04-28T02:41:41.119Z,6.83
2019-04-28T02:42:40.951Z,6.84
2019-04-28T02:43:40.966Z,6.84
2019-04-28T02:44:40.468Z,6.84
2019-04-28T02:45:41.199Z,6.83
2019-04-28T02:46:40.791Z,6.83
2019-04-28T02:47:42.013Z,6.80
2019-04-28T02:48:40.424Z,6.80
2019-04-28T02:49:40.574Z,6.77
2019-04-28T02:50:41.086Z,6.77
2019-04-28T02:51:40.772Z,6.76
2019-04-28T02:52:41.444Z,6.73
2019-04-28T02:53:40.896Z,6.72
2019-04-28T02:54:40.397Z,6.69
2019-04-28T02:55:41.280Z,6.65
2019-04-28T02:56:43.418Z,6.65
2019-04-28T02:57:40.658Z,6.62
2019-04-28T02:58:41.551Z,6.62
2019-04-28T02:59:40.986Z,6.54
2019-04-28T03:00:41.149Z,6.56
2019-04-28T03:01:40.968Z,6.56
2019-04-28T03:02:41.409Z,6.59
2019-04-28T03:03:40.863Z,6.61
2019-04-28T03:04:40.834Z,6.62
2019-04-28T03:05:41.278Z,6.65
2019-04-28T03:06:40.729Z,6.71
2019-04-28T03:07:40.946Z,6.71
2019-04-28T03:08:40.545Z,6.72
2019-04-28T03:09:40.395Z,6.71
2019-04-28T03:10:40.968Z,6.69
2019-04-28T03:11:42.775Z,6.66
2019-04-28T03:12:41.450Z,6.63
2019-04-28T03:13:41.099Z,6.65
2019-04-28T03:14:43.287Z,6.62
2019-04-28T03:15:41.437Z,6.63
2019-04-28T03:16:41.070Z,6.62
2019-04-28T03:17:40.681Z,6.63
2019-04-28T03:18:41.194Z,6.62
2019-04-28T03:19:41.482Z,6.62
2019-04-28T03:20:41.537Z,6.62
2019-04-28T03:21:41.664Z,6.62
2019-04-28T03:22:40.820Z,6.62
2019-04-28T03:23:40.512Z,6.62
2019-04-28T03:24:41.310Z,6.65
2019-04-28T03:25:40.777Z,6.66
2019-04-28T03:26:41.328Z,6.62
2019-04-28T03:27:40.493Z,6.56
2019-04-28T03:28:41.356Z,6.56
2019-04-28T03:29:40.392Z,6.56
2019-04-28T03:30:43.523Z,6.56
2019-04-28T03:32:03.737Z,6.58
2019-04-28T03:32:52.060Z,6.59
2019-04-28T03:33:47.222Z,6.61
2019-04-28T03:34:43.529Z,6.62
2019-04-28T03:35:43.483Z,6.63
2019-04-28T03:36:40.881Z,6.65
2019-04-28T03:37:41.188Z,6.66
2019-04-28T03:38:40.655Z,6.62
2019-04-28T03:39:40.524Z,6.65
2019-04-28T03:40:41.343Z,6.63
2019-04-28T03:41:40.566Z,6.59
2019-04-28T03:42:40.973Z,6.58
2019-04-28T03:43:40.595Z,6.54
2019-04-28T03:44:41.481Z,6.54
2019-04-28T03:45:41.015Z,6.56
2019-04-28T03:46:41.205Z,6.56
2019-04-28T03:47:40.696Z,6.50
2019-04-28T03:48:40.987Z,6.47
2019-04-28T03:49:40.621Z,6.41
2019-04-28T03:50:41.211Z,6.38
2019-04-28T03:51:40.785Z,6.40
2019-04-28T03:52:41.247Z,6.40
2019-04-28T03:53:40.940Z,6.38
2019-04-28T03:54:40.999Z,6.38
2019-04-28T03:55:41.420Z,6.36
2019-04-28T03:56:41.139Z,6.35
2019-04-28T03:57:41.031Z,6.28
2019-04-28T03:58:40.570Z,6.25
2019-04-28T03:59:43.066Z,6.22
2019-04-28T04:00:40.864Z,6.25
2019-04-28T04:01:53.024Z,6.28
2019-04-28T04:02:41.148Z,6.29
2019-04-28T04:03:38.600Z,6.32
2019-04-28T04:04:41.097Z,6.30
2019-04-28T04:05:40.605Z,6.32
2019-04-28T04:06:40.782Z,6.32
2019-04-28T04:07:42.751Z,6.29
2019-04-28T04:08:40.798Z,6.32
2019-04-28T04:09:41.226Z,6.29
2019-04-28T04:10:40.362Z,6.28
2019-04-28T04:11:40.888Z,6.28
2019-04-28T04:12:40.969Z,6.29
2019-04-28T04:13:41.223Z,6.26
2019-04-28T04:14:41.029Z,6.22
2019-04-28T04:15:41.089Z,6.22
2019-04-28T04:16:40.576Z,6.26
2019-04-28T04:17:41.103Z,6.29
2019-04-28T04:18:40.711Z,6.32
2019-04-28T04:19:40.766Z,6.30
2019-04-28T04:20:40.346Z,6.32
2019-04-28T04:21:40.704Z,6.35
2019-04-28T04:22:41.054Z,6.26
2019-04-28T04:23:40.907Z,6.18
2019-04-28T04:24:40.267Z,6.16
2019-04-28T04:25:41.191Z,6.16
2019-04-28T04:26:40.735Z,6.18
2019-04-28T04:27:40.631Z,6.21
2019-04-28T04:28:38.360Z,6.25
2019-04-28T04:29:41.161Z,6.26
2019-04-28T04:30:40.862Z,6.28
2019-04-28T04:31:38.347Z,6.29
2019-04-28T04:32:40.907Z,6.30
2019-04-28T04:33:40.754Z,6.33
2019-04-28T04:34:40.614Z,6.33
2019-04-28T04:35:43.144Z,6.29
2019-04-28T04:36:41.811Z,6.26
2019-04-28T04:37:40.383Z,6.18
2019-04-28T04:38:42.974Z,6.18
2019-04-28T04:39:40.710Z,6.21
2019-04-28T04:40:40.994Z,6.22
2019-04-28T04:41:40.854Z,6.25
2019-04-28T04:42:40.296Z,6.22
2019-04-28T04:43:41.177Z,6.21
2019-04-28T04:44:41.352Z,6.22
2019-04-28T04:45:40.497Z,6.25
2019-04-28T04:46:41.230Z,6.28
2019-04-28T04:47:40.470Z,6.21
2019-04-28T04:48:40.657Z,6.16
2019-04-28T04:49:40.323Z,6.13
2019-04-28T04:50:40.909Z,6.11
2019-04-28T04:51:40.768Z,6.11
2019-04-28T04:52:40.269Z,6.13
2019-04-28T04:53:40.611Z,6.18
2019-04-28T04:54:39.993Z,6.22
2019-04-28T04:55:40.573Z,6.26
2019-04-28T04:56:39.992Z,6.30
2019-04-28T04:57:38.034Z,6.33
2019-04-28T04:58:40.445Z,6.32
2019-04-28T04:59:39.986Z,6.30
2019-04-28T05:00:38.009Z,6.33
2019-04-28T05:01:40.430Z,6.35
2019-04-28T05:02:39.997Z,6.33
2019-04-28T05:03:39.399Z,6.35
2019-04-28T05:04:39.582Z,6.40
2019-04-28T05:05:37.935Z,6.41
2019-04-28T05:06:39.949Z,6.44
2019-04-28T05:07:39.595Z,6.46
2019-04-28T05:08:37.897Z,6.44
2019-04-28T05:09:39.493Z,6.46
2019-04-28T05:10:37.875Z,6.54
2019-04-28T05:11:39.815Z,6.62
2019-04-28T05:12:37.855Z,6.69
2019-04-28T05:13:37.874Z,6.72
2019-04-28T05:14:39.474Z,6.77
2019-04-28T05:15:37.813Z,6.83
2019-04-28T05:16:39.626Z,6.90
2019-04-28T05:17:37.853Z,6.98
2019-04-28T05:18:39.363Z,7.04
2019-04-28T05:19:37.811Z,7.09
2019-04-28T05:20:37.763Z,7.17
2019-04-28T05:21:39.859Z,7.24
2019-04-28T05:22:37.781Z,7.37
2019-04-28T05:23:37.789Z,7.42
2019-04-28T05:24:37.731Z,7.52
2019-04-28T05:25:39.474Z,7.59
2019-04-28T05:26:42.493Z,7.66
2019-04-28T05:27:39.906Z,7.71
2019-04-28T05:28:43.980Z,7.71
2019-04-28T05:29:39.799Z,7.69
2019-04-28T05:30:39.771Z,7.62
2019-04-28T05:31:40.088Z,7.59
2019-04-28T05:32:43.121Z,7.60
2019-04-28T05:33:39.563Z,7.63
2019-04-28T05:34:41.506Z,7.63
2019-04-28T05:35:39.721Z,7.66
2019-04-28T05:36:42.519Z,7.66
2019-04-28T05:37:40.335Z,7.74
2019-04-28T05:38:37.571Z,7.81
2019-04-28T05:39:38.628Z,7.74
2019-04-28T05:40:37.562Z,7.66
2019-04-28T05:41:37.528Z,7.62
2019-04-28T05:42:39.400Z,7.58
2019-04-28T05:43:37.519Z,7.49
2019-04-28T05:44:37.835Z,7.40
2019-04-28T05:45:37.481Z,7.35
2019-04-28T05:46:37.472Z,7.35
2019-04-28T05:47:37.462Z,7.40
2019-04-28T05:48:37.451Z,7.47
2019-04-28T05:49:37.480Z,7.59
2019-04-28T05:50:37.430Z,7.77
2019-04-28T05:51:37.433Z,7.90
2019-04-28T05:52:37.411Z,7.92
2019-04-28T05:53:37.400Z,7.97
2019-04-28T05:54:37.421Z,8.14
2019-04-28T05:55:37.381Z,8.21
2019-04-28T05:56:37.361Z,8.28
2019-04-28T05:57:37.358Z,8.44
2019-04-28T05:58:37.383Z,8.68
2019-04-28T05:59:37.346Z,8.94
2019-04-28T06:00:37.352Z,9.24
2019-04-28T06:01:37.309Z,9.46
2019-04-28T06:02:37.299Z,9.67
2019-04-28T06:03:37.291Z,9.91
2019-04-28T06:04:37.279Z,10.09
2019-04-28T06:05:37.310Z,10.22
2019-04-28T06:06:37.250Z,10.36
2019-04-28T06:07:37.268Z,10.52
2019-04-28T06:08:37.240Z,10.71
2019-04-28T06:09:37.228Z,10.92
2019-04-28T06:10:37.279Z,11.09
2019-04-28T06:11:37.203Z,10.74
2019-04-28T06:12:37.189Z,10.63
2019-04-28T06:13:37.181Z,10.63
2019-04-28T06:14:37.297Z,10.80
2019-04-28T06:15:37.151Z,11.03
2019-04-28T06:16:37.164Z,11.06
2019-04-28T06:17:37.132Z,11.11
2019-04-28T06:18:37.121Z,11.19
2019-04-28T06:19:37.149Z,11.17
2019-04-28T06:20:37.101Z,11.29
2019-04-28T06:21:37.130Z,11.54
2019-04-28T06:22:37.091Z,11.71
2019-04-28T06:23:37.081Z,11.83
2019-04-28T06:24:37.060Z,12.02
2019-04-28T06:25:37.101Z,12.24
2019-04-28T06:26:37.040Z,12.27
2019-04-28T06:27:37.069Z,12.26
2019-04-28T06:28:37.020Z,12.20
2019-04-28T06:29:37.019Z,12.15
2019-04-28T06:30:37.025Z,12.30
2019-04-28T06:31:36.991Z,12.52
2019-04-28T06:32:37.027Z,12.74
2019-04-28T06:33:36.968Z,12.34
2019-04-28T06:34:36.949Z,12.06
2019-04-28T06:35:36.946Z,12.09
2019-04-28T06:36:36.961Z,12.23
2019-04-28T06:37:36.930Z,12.41
2019-04-28T06:38:36.908Z,12.63
2019-04-28T06:39:36.911Z,12.79
2019-04-28T06:40:36.885Z,12.95
2019-04-28T06:41:36.911Z,12.99
2019-04-28T06:42:36.859Z,13.21
2019-04-28T06:43:36.851Z,13.32
2019-04-28T06:44:36.859Z,13.25
2019-04-28T06:45:36.873Z,13.49
2019-04-28T06:46:36.849Z,13.65
2019-04-28T06:47:36.861Z,13.79
2019-04-28T06:48:36.892Z,13.59
2019-04-28T06:49:36.910Z,13.00
2019-04-28T06:50:36.770Z,12.39
2019-04-28T06:51:36.787Z,12.04
2019-04-28T06:52:36.776Z,11.99
2019-04-28T06:53:36.750Z,11.93
2019-04-28T06:54:36.763Z,12.05
2019-04-28T06:55:36.729Z,11.93
2019-04-28T06:56:36.717Z,11.93
2019-04-28T06:57:36.729Z,12.04
2019-04-28T06:58:36.733Z,11.94
2019-04-28T06:59:36.681Z,11.85
2019-04-28T07:00:36.673Z,11.72
2019-04-28T07:01:36.650Z,11.61
2019-04-28T07:02:36.664Z,11.54
2019-04-28T07:03:36.681Z,11.53
2019-04-28T07:04:36.650Z,11.70
2019-04-28T07:05:36.665Z,11.89
2019-04-28T07:06:36.611Z,12.08
2019-04-28T07:07:36.611Z,12.02
2019-04-28T07:08:36.613Z,12.15
2019-04-28T07:09:36.593Z,12.37
2019-04-28T07:10:36.615Z,12.57
2019-04-28T07:11:36.551Z,12.97
2019-04-28T07:12:36.611Z,13.18
2019-04-28T07:13:36.521Z,13.09
2019-04-28T07:14:36.539Z,12.74
2019-04-28T07:15:36.512Z,12.49
2019-04-28T07:16:36.512Z,12.34
2019-04-28T07:17:36.512Z,12.19
2019-04-28T07:18:36.481Z,12.04
2019-04-28T07:19:36.481Z,11.97
2019-04-28T07:20:36.465Z,11.36
2019-04-28T07:21:36.489Z,11.29
2019-04-28T07:22:36.434Z,11.39
2019-04-28T07:23:37.129Z,11.39
2019-04-28T07:24:36.441Z,11.32
2019-04-28T07:25:36.421Z,11.31
2019-04-28T07:26:36.445Z,11.31
2019-04-28T07:27:36.390Z,11.28
2019-04-28T07:28:36.381Z,11.24
2019-04-28T07:29:36.373Z,10.99
2019-04-28T07:30:36.334Z,10.94
2019-04-28T07:31:36.386Z,11.11
2019-04-28T07:32:36.341Z,11.59
2019-04-28T07:33:36.507Z,11.59
2019-04-28T07:34:36.318Z,11.65
2019-04-28T07:35:36.320Z,11.99
2019-04-28T07:36:36.271Z,11.93
2019-04-28T07:37:36.311Z,12.05
2019-04-28T07:38:36.284Z,12.08
2019-04-28T07:39:36.263Z,11.96
2019-04-28T07:40:36.236Z,12.13
2019-04-28T07:41:36.215Z,12.16
2019-04-28T07:42:36.233Z,12.48
2019-04-28T07:43:36.202Z,12.54
2019-04-28T07:44:36.182Z,12.99
2019-04-28T07:45:36.213Z,12.78
2019-04-28T07:46:36.164Z,12.57
2019-04-28T07:47:36.192Z,12.26
2019-04-28T07:48:36.150Z,12.15
2019-04-28T07:49:36.142Z,12.88
2019-04-28T07:50:36.137Z,13.37
2019-04-28T07:51:36.105Z,13.74
2019-04-28T07:52:36.177Z,13.81
2019-04-28T07:53:36.093Z,13.67
2019-04-28T07:54:36.075Z,14.21
2019-04-28T07:55:36.098Z,14.75
2019-04-28T07:56:36.097Z,15.05
2019-04-28T07:57:36.096Z,15.19
2019-04-28T07:58:36.030Z,15.05
2019-04-28T07:59:36.034Z,14.65
2019-04-28T08:00:36.014Z,14.61
2019-04-28T08:01:36.013Z,14.75
2019-04-28T08:02:36.036Z,15.27
2019-04-28T08:03:48.536Z,15.60
2019-04-28T08:04:36.988Z,15.81
2019-04-28T08:05:36.035Z,15.92
2019-04-28T08:06:35.954Z,15.78
2019-04-28T08:07:36.067Z,15.86
2019-04-28T08:08:35.934Z,15.92
2019-04-28T08:09:35.914Z,15.74
2019-04-28T08:10:35.904Z,15.45
2019-04-28T08:11:35.963Z,15.30
2019-04-28T08:12:35.904Z,15.28
2019-04-28T08:13:35.908Z,15.03
2019-04-28T08:14:35.883Z,14.90
2019-04-28T08:15:35.856Z,14.68
2019-04-28T08:16:35.957Z,14.39
2019-04-28T08:17:35.819Z,14.17
2019-04-28T08:18:35.858Z,14.07
2019-04-28T08:19:36.828Z,13.89
2019-04-28T08:20:35.816Z,13.71
2019-04-28T08:21:35.847Z,13.63
2019-04-28T08:22:35.792Z,13.65
2019-04-28T08:23:46.653Z,13.49
2019-04-28T08:24:36.754Z,13.24
2019-04-28T08:25:35.794Z,13.12
2019-04-28T08:26:36.393Z,13.03
2019-04-28T08:27:35.716Z,12.99
2019-04-28T08:28:35.717Z,12.89
2019-04-28T08:29:35.685Z,12.85
2019-04-28T08:30:35.698Z,12.88
2019-04-28T08:31:35.698Z,13.46
2019-04-28T08:32:35.719Z,13.95
2019-04-28T08:33:35.647Z,14.49
2019-04-28T08:34:35.660Z,14.98
2019-04-28T08:35:35.648Z,15.38
2019-04-28T08:36:36.262Z,15.66
2019-04-28T08:37:35.631Z,16.04
2019-04-28T08:38:35.640Z,16.04
2019-04-28T08:39:35.584Z,16.48
2019-04-28T08:40:35.571Z,16.40
2019-04-28T08:41:35.577Z,16.99
2019-04-28T08:42:35.604Z,17.47
2019-04-28T08:43:35.537Z,17.48
2019-04-28T08:44:35.518Z,17.36
2019-04-28T08:45:35.518Z,16.58
2019-04-28T08:46:35.503Z,16.06
2019-04-28T08:47:35.568Z,15.97
2019-04-28T08:48:35.486Z,15.67
2019-04-28T08:49:35.533Z,15.42
2019-04-28T08:50:35.472Z,15.79
2019-04-28T08:51:35.448Z,15.45
2019-04-28T08:52:35.448Z,15.60
2019-04-28T08:53:35.429Z,15.15
2019-04-28T08:54:35.480Z,14.88
2019-04-28T08:55:35.399Z,14.53
2019-04-28T08:56:35.418Z,14.07
2019-04-28T08:57:35.397Z,14.43
2019-04-28T08:58:35.413Z,14.60
2019-04-28T08:59:35.601Z,14.31
2019-04-28T09:00:35.378Z,15.35
2019-04-28T09:01:35.349Z,16.52
2019-04-28T09:02:35.330Z,16.93
2019-04-28T09:03:35.369Z,16.85
2019-04-28T09:04:35.342Z,16.80
2019-04-28T09:05:35.339Z,16.50
2019-04-28T09:06:35.312Z,16.22
2019-04-28T09:07:35.293Z,15.88
2019-04-28T09:08:35.263Z,14.98
2019-04-28T09:09:35.309Z,14.14
2019-04-28T09:10:35.240Z,13.47
2019-04-28T09:11:35.260Z,12.82
2019-04-28T09:12:35.241Z,12.60
2019-04-28T09:13:35.244Z,12.59
2019-04-28T09:14:35.249Z,12.69
2019-04-28T09:15:35.185Z,12.82
2019-04-28T09:16:35.180Z,12.95
2019-04-28T09:17:35.182Z,13.25
2019-04-28T09:18:35.183Z,13.44
2019-04-28T09:19:35.191Z,13.46
2019-04-28T09:20:35.143Z,13.37
2019-04-28T09:21:35.139Z,13.61
2019-04-28T09:22:35.151Z,14.31
2019-04-28T09:23:35.102Z,14.98
2019-04-28T09:24:35.089Z,15.35
2019-04-28T09:25:35.088Z,15.28
2019-04-28T09:26:37.023Z,15.08
2019-04-28T09:27:35.099Z,15.15
2019-04-28T09:28:35.045Z,15.23
2019-04-28T09:29:35.073Z,15.38
2019-04-28T09:30:35.021Z,15.45
2019-04-28T09:31:35.045Z,14.83
2019-04-28T09:32:35.062Z,14.88
2019-04-28T09:33:35.025Z,15.05
2019-04-28T09:34:34.980Z,14.99
2019-04-28T09:35:34.973Z,15.08
2019-04-28T09:36:35.053Z,15.21
2019-04-28T09:37:34.943Z,15.20
2019-04-28T09:38:34.933Z,15.27
2019-04-28T09:39:34.938Z,15.38
2019-04-28T09:40:34.918Z,15.45
2019-04-28T09:41:34.947Z,15.48
2019-04-28T09:42:34.885Z,15.52
2019-04-28T09:43:34.875Z,15.51
2019-04-28T09:44:34.863Z,15.28
2019-04-28T09:45:34.859Z,15.08
2019-04-28T09:46:34.874Z,14.94
2019-04-28T09:47:34.840Z,14.62
2019-04-28T09:48:34.824Z,14.67
2019-04-28T09:49:34.851Z,14.78
2019-04-28T09:50:34.799Z,14.31
2019-04-28T09:51:34.794Z,14.14
2019-04-28T09:52:34.776Z,14.14
2019-04-28T09:53:34.867Z,14.14
2019-04-28T09:54:34.795Z,14.19
2019-04-28T09:55:34.744Z,13.94
2019-04-28T09:56:34.747Z,14.10
2019-04-28T09:57:34.743Z,14.14
2019-04-28T09:58:34.712Z,14.12
2019-04-28T09:59:34.752Z,14.02
2019-04-28T10:00:34.687Z,14.21
2019-04-28T10:01:34.732Z,14.17
2019-04-28T10:02:34.675Z,14.24
2019-04-28T10:03:34.675Z,14.38
2019-04-28T10:04:41.357Z,14.38
2019-04-28T10:05:35.667Z,14.31
2019-04-28T10:06:34.696Z,14.38
2019-04-28T10:07:34.618Z,14.27
2019-04-28T10:08:36.630Z,14.31
2019-04-28T10:09:34.596Z,14.37
2019-04-28T10:10:34.590Z,14.39
2019-04-28T10:11:34.622Z,14.56
2019-04-28T10:12:34.582Z,14.83
2019-04-28T10:13:34.543Z,15.06
2019-04-28T10:14:34.566Z,15.03
2019-04-28T10:15:34.577Z,15.13
2019-04-28T10:16:34.517Z,15.27
2019-04-28T10:17:34.527Z,15.24
2019-04-28T10:18:34.493Z,15.33
2019-04-28T10:19:34.491Z,15.24
2019-04-28T10:20:34.497Z,15.13
2019-04-28T10:21:34.457Z,15.27
2019-04-28T10:22:34.465Z,15.33
2019-04-28T10:23:34.445Z,15.51
2019-04-28T10:24:34.455Z,15.59
2019-04-28T10:25:36.567Z,15.27
2019-04-28T10:26:34.440Z,14.95
2019-04-28T10:27:34.393Z,14.56
2019-04-28T10:28:34.386Z,14.21
2019-04-28T10:29:35.656Z,14.09
2019-04-28T10:30:35.804Z,14.04
2019-04-28T10:31:34.379Z,14.13
2019-04-28T10:32:34.340Z,14.12
2019-04-28T10:33:34.338Z,13.92
2019-04-28T10:34:34.318Z,13.63
2019-04-28T10:35:34.308Z,13.76
2019-04-28T10:36:34.330Z,13.81
2019-04-28T10:37:34.279Z,13.81
2019-04-28T10:38:34.288Z,13.77
2019-04-28T10:39:34.262Z,13.83
2019-04-28T10:40:34.259Z,13.54
2019-04-28T10:41:34.277Z,13.33
2019-04-28T10:42:34.264Z,13.59
2019-04-28T10:43:34.222Z,13.99
2019-04-28T10:44:34.221Z,14.35
2019-04-28T10:45:34.207Z,14.78
2019-04-28T10:46:34.227Z,15.20
2019-04-28T10:47:34.175Z,15.59
2019-04-28T10:48:34.170Z,15.93
2019-04-28T10:49:34.179Z,16.00
2019-04-28T10:50:34.190Z,15.78
2019-04-28T10:51:34.199Z,15.86
2019-04-28T10:52:34.160Z,16.16
2019-04-28T10:53:34.151Z,16.16
2019-04-28T10:54:34.114Z,16.22
2019-04-28T10:55:34.118Z,16.38
2019-04-28T10:56:34.111Z,16.42
2019-04-28T10:57:34.098Z,16.45
2019-04-28T10:58:34.082Z,16.41
2019-04-28T10:59:34.172Z,16.34
2019-04-28T11:00:34.032Z,16.18
2019-04-28T11:01:34.051Z,16.01
2019-04-28T11:02:34.012Z,15.82
2019-04-28T11:03:34.004Z,15.26
2019-04-28T11:04:34.002Z,14.94
2019-04-28T11:05:33.985Z,14.65
2019-04-28T11:06:34.012Z,14.47
2019-04-28T11:07:33.959Z,14.39
2019-04-28T11:08:33.963Z,14.32
2019-04-28T11:09:33.932Z,14.28
2019-04-28T11:10:33.962Z,14.25
2019-04-28T11:11:33.948Z,14.14
2019-04-28T11:12:33.893Z,13.98
2019-04-28T11:13:33.911Z,13.92
2019-04-28T11:14:33.893Z,13.88
2019-04-28T11:15:33.913Z,13.70
2019-04-28T11:16:33.877Z,13.63
2019-04-28T11:17:33.872Z,13.70
2019-04-28T11:18:33.853Z,13.76
2019-04-28T11:19:33.849Z,13.81
2019-04-28T11:20:33.873Z,13.84
2019-04-28T11:21:33.850Z,13.89
2019-04-28T11:22:33.785Z,13.92
2019-04-28T11:23:33.784Z,13.95
2019-04-28T11:24:33.774Z,14.04
2019-04-28T11:25:33.787Z,14.17
2019-04-28T11:26:33.753Z,14.35
2019-04-28T11:27:33.737Z,14.53
2019-04-28T11:28:33.754Z,14.68
2019-04-28T11:29:33.710Z,14.72
2019-04-28T11:30:33.713Z,14.65
2019-04-28T11:31:33.826Z,14.62
2019-04-28T11:32:33.677Z,14.50
2019-04-28T11:33:33.684Z,14.31
2019-04-28T11:34:33.654Z,14.25
2019-04-28T11:35:33.673Z,14.29
2019-04-28T11:36:33.669Z,14.31
2019-04-28T11:37:33.642Z,14.24
2019-04-28T11:38:33.627Z,14.13
2019-04-28T11:39:33.619Z,14.09
2019-04-28T11:40:33.593Z,14.07
2019-04-28T11:41:33.618Z,14.02
2019-04-28T11:42:33.584Z,14.01
2019-04-28T11:43:33.590Z,14.01
2019-04-28T11:44:34.481Z,13.98
2019-04-28T11:45:33.589Z,13.96
2019-04-28T11:46:33.616Z,13.95
2019-04-28T11:47:33.588Z,13.98
2019-04-28T11:48:33.541Z,14.01
2019-04-28T11:49:33.494Z,14.06
2019-04-28T11:50:33.509Z,14.10
2019-04-28T11:51:33.505Z,14.12
2019-04-28T11:52:33.496Z,14.12
2019-04-28T11:53:33.471Z,14.06
2019-04-28T11:54:33.465Z,14.06
2019-04-28T11:55:38.452Z,14.07
2019-04-28T11:56:41.281Z,14.07
2019-04-28T11:57:34.404Z,14.09
2019-04-28T11:58:33.424Z,14.01
2019-04-28T11:59:33.421Z,13.94
2019-04-28T12:00:33.957Z,13.83
2019-04-28T12:01:33.446Z,13.80
2019-04-28T12:02:33.395Z,13.79
2019-04-28T12:03:33.366Z,13.54
2019-04-28T12:04:33.967Z,13.33
2019-04-28T12:05:34.587Z,13.15
2019-04-28T12:06:33.347Z,13.07
2019-04-28T12:07:33.369Z,13.07
2019-04-28T12:08:33.353Z,13.14
2019-04-28T12:09:33.311Z,13.20
2019-04-28T12:10:33.309Z,13.27
2019-04-28T12:11:33.287Z,13.29
2019-04-28T12:12:33.304Z,13.32
2019-04-28T12:13:33.225Z,13.32
2019-04-28T12:14:33.217Z,13.32
2019-04-28T12:15:33.214Z,13.25
2019-04-28T12:16:33.209Z,13.21
2019-04-28T12:17:35.126Z,13.15
2019-04-28T12:18:33.185Z,12.81
2019-04-28T12:19:33.176Z,12.74
2019-04-28T12:20:33.171Z,12.85
2019-04-28T12:21:33.149Z,12.95
2019-04-28T12:22:33.172Z,12.93
2019-04-28T12:23:33.168Z,12.95
2019-04-28T12:24:33.108Z,12.99
2019-04-28T12:25:33.116Z,12.93
2019-04-28T12:26:33.109Z,12.87
2019-04-28T12:27:33.116Z,12.88
2019-04-28T12:28:33.071Z,12.96
2019-04-28T12:29:33.087Z,13.03
2019-04-28T12:30:33.044Z,13.12
2019-04-28T12:31:33.039Z,13.21
2019-04-28T12:32:33.037Z,13.27
2019-04-28T12:33:33.047Z,13.32
2019-04-28T12:34:33.015Z,13.32
2019-04-28T12:35:32.997Z,13.33
2019-04-28T12:36:32.979Z,13.27
2019-04-28T12:37:32.984Z,13.29
2019-04-28T12:38:33.000Z,13.32
2019-04-28T12:39:32.945Z,13.30
2019-04-28T12:40:32.930Z,13.32
2019-04-28T12:41:32.925Z,13.29
2019-04-28T12:42:32.908Z,13.17
2019-04-28T12:43:32.942Z,13.21
2019-04-28T12:44:32.907Z,13.30
2019-04-28T12:45:35.165Z,13.37
2019-04-28T12:46:32.881Z,13.40
2019-04-28T12:47:32.905Z,13.44
2019-04-28T12:48:32.880Z,13.47
2019-04-28T12:49:32.846Z,13.52
2019-04-28T12:50:32.847Z,13.51
2019-04-28T12:51:32.830Z,13.55
2019-04-28T12:52:32.877Z,13.56
2019-04-28T12:53:32.819Z,13.58
2019-04-28T12:54:32.796Z,13.55
2019-04-28T12:55:32.782Z,13.52
2019-04-28T12:56:32.789Z,13.51
2019-04-28T12:57:32.759Z,13.52
2019-04-28T12:58:32.788Z,13.52
2019-04-28T12:59:32.757Z,13.12
2019-04-28T13:00:32.709Z,12.85
2019-04-28T13:01:32.709Z,12.74
2019-04-28T13:02:32.697Z,12.79
2019-04-28T13:03:32.727Z,12.84
2019-04-28T13:04:32.670Z,12.82